Leroy, TX (76654)

7:34 PM CDT on September 25, 2016 (GMT -0500)
Leroy-Tours area | | Change Station

Elev 528 ft 31.75 °N, 97.03 °W | Updated 37 seconds ago

Mostly Cloudy
Mostly Cloudy
73.4 °F
Feels Like 72 °F
N
2.0
Wind Variable Wind from NE

Today
High -- | Low -- °F
--% Chance of Precip.
Yesterday
High -- | Low -- °F
Precip. -- in
Pressure 30.02 in
Visibility 10.0 miles
Clouds Mostly Cloudy 1100 ft
Heat Index 72 °F
Dew Point 69 °F
Humidity 88%
Rainfall 0.59 in
Snow Depth Not available.
7:18 AM 7:19 PM
Waning Crescent, 23% visible
SPECI KACT 260003Z 10004KT 10SM BKN011 24/23 A3002 RMK AO2 T02390233 $
Pressure 30.02 in
Visibility 10.0 miles
Clouds Mostly Cloudy 1100 ft
Heat Index 72 °F
Dew Point 69 °F
Humidity 88%
Rainfall 0.59 in
Snow Depth Not available.
7:18 AM 7:19 PM
Waning Crescent, 23% visible
SPECI KACT 260003Z 10004KT 10SM BKN011 24/23 A3002 RMK AO2 T02390233 $

10-Day Weather Forecast

Almanac

Astronomy

Sep. 25, 2016 Rise Set
Actual Time
Civil Twilight
Nautical Twilight
Astronomical Twilight
Moon
Length of Visible Light
Length of Day
Tomorrow will be .
, % of the Moon is Illuminated

Today's Extremes

State Highs State Lows

Community

WunderPhotos

Upload Photos

1,941,796 photos uploaded!

WunderBlog® & News

Nearby

Air Quality

  Air Quality AQ Index Pollutant
Not available.

Snow Depth

Station Depth Elevation

Earthquake Activity

City Distance Mag. Time & Date
Minimum magnitude displayed is 2.5.

Coastal Water Temperatures

Place Temperature

Stations

Nearby Weather Stations

Station Location Temp. Windchill Dew Point Humidity Wind Precip. Elev Updated Type
                   

Watches & Warnings

There are currently no watches in effect.